Time;durP1;ratioP1;P1;durP2;ratioP2;P2;SDS_P1;SDS_P2;PMS_P1;PMS_P2;Temp;Humidity;BMP_temperature;BMP_pressure;BME280_temperature;BME280_humidity;BME280_pressure;Samples;Min_cycle;Max_cycle;Signal;HPM_P1;HPM_P2
2023/01/21 00:03:13;;;;;;;40.83;19.50;;;-1.00;99.90;;;;;;8259264;28;20199;-65
2023/01/21 00:07:14;;;;;;;42.43;19.57;;;-1.00;99.90;;;;;;8264209;28;20195;-64
2023/01/21 00:11:15;;;;;;;39.00;19.83;;;-1.00;99.90;;;;;;8259652;28;20206;-64
2023/01/21 00:15:16;;;;;;;43.13;21.23;;;-1.00;99.90;;;;;;8263433;28;20283;-65
2023/01/21 00:19:17;;;;;;;43.27;19.27;;;-1.10;99.90;;;;;;8268178;28;21064;-65
2023/01/21 00:23:18;;;;;;;36.20;19.87;;;-1.00;99.90;;;;;;8265198;28;20192;-64
2023/01/21 00:27:19;;;;;;;38.00;18.60;;;-1.10;99.90;;;;;;8266069;28;20176;-64
2023/01/21 00:31:20;;;;;;;40.60;19.50;;;-1.10;99.90;;;;;;8261287;28;20184;-63
2023/01/21 00:35:21;;;;;;;41.57;20.43;;;-1.10;99.90;;;;;;8268882;28;20612;-63
2023/01/21 00:39:21;;;;;;;47.90;21.10;;;-1.10;99.90;;;;;;8261833;28;20216;-63
2023/01/21 00:43:22;;;;;;;42.77;20.23;;;-1.10;99.90;;;;;;8260970;28;20189;-64
2023/01/21 00:47:23;;;;;;;44.80;21.10;;;-1.20;99.90;;;;;;8262240;28;20192;-64
2023/01/21 00:51:25;;;;;;;50.47;21.73;;;-1.20;99.90;;;;;;8262193;28;20200;-64
2023/01/21 00:55:26;;;;;;;48.77;22.07;;;-1.10;99.90;;;;;;8259844;28;20182;-64
2023/01/21 00:59:27;;;;;;;44.60;22.03;;;-1.20;99.90;;;;;;8266533;28;20187;-64
2023/01/21 01:03:28;;;;;;;44.37;21.50;;;-1.20;99.90;;;;;;8258220;28;20192;-64
2023/01/21 01:07:28;;;;;;;45.30;20.20;;;-1.10;99.90;;;;;;8266863;28;20387;-63
2023/01/21 01:11:30;;;;;;;43.17;19.73;;;-1.10;99.90;;;;;;8267231;28;20190;-63
2023/01/21 01:15:31;;;;;;;40.57;19.63;;;-1.10;99.90;;;;;;8268243;28;20263;-63
2023/01/21 01:19:32;;;;;;;44.23;20.23;;;-1.20;99.90;;;;;;8265950;28;20181;-64
2023/01/21 01:23:32;;;;;;;44.30;19.50;;;-1.20;99.90;;;;;;8267461;28;20197;-63
2023/01/21 01:27:33;;;;;;;41.73;19.83;;;-1.20;99.90;;;;;;8274004;28;20192;-64
2023/01/21 01:31:34;;;;;;;42.30;20.57;;;-1.20;99.90;;;;;;8271989;28;20208;-65
2023/01/21 01:35:35;;;;;;;38.40;20.03;;;-1.20;99.90;;;;;;8270162;28;20207;-64
2023/01/21 01:39:36;;;;;;;42.53;20.23;;;-1.20;99.90;;;;;;8265526;28;20193;-68
2023/01/21 01:43:56;;;;;;;37.83;18.50;;;-1.20;99.90;;;;;;8267447;28;20611;-64
2023/01/21 01:48:01;;;;;;;35.47;17.60;;;-1.20;99.90;;;;;;8263130;28;20199;-64
2023/01/21 01:52:05;;;;;;;32.40;17.40;;;-1.10;99.90;;;;;;8265266;28;20201;-64
2023/01/21 01:56:06;;;;;;;39.00;19.20;;;-1.20;99.90;;;;;;8271698;28;20279;-64
2023/01/21 02:00:10;;;;;;;37.30;18.33;;;-1.10;99.90;;;;;;8266056;28;20193;-64
2023/01/21 02:04:17;;;;;;;38.70;17.73;;;-1.20;99.90;;;;;;8272133;28;20217;-64
2023/01/21 02:08:18;;;;;;;39.70;17.60;;;-1.10;99.90;;;;;;8267569;28;20285;-64
2023/01/21 02:12:20;;;;;;;37.47;15.73;;;-1.10;99.90;;;;;;8268057;28;20465;-64
2023/01/21 02:16:36;;;;;;;32.87;16.33;;;-1.10;99.90;;;;;;8270137;28;20208;-64
2023/01/21 02:21:12;;;;;;;37.20;17.43;;;-1.10;99.90;;;;;;8265213;28;20181;-64
2023/01/21 02:25:19;;;;;;;39.93;17.23;;;-1.10;99.90;;;;;;8248407;28;20478;-64
2023/01/21 02:29:42;;;;;;;35.40;17.23;;;-1.20;99.90;;;;;;8267426;28;20193;-64
2023/01/21 02:34:00;;;;;;;38.20;18.93;;;-1.20;99.90;;;;;;8262260;28;20219;-65
2023/01/21 02:38:19;;;;;;;37.00;19.80;;;-1.20;99.90;;;;;;8263642;28;20206;-65
2023/01/21 02:42:44;;;;;;;42.77;19.17;;;-1.20;99.90;;;;;;8263886;28;20194;-64
2023/01/21 02:46:53;;;;;;;35.77;17.93;;;-1.20;99.90;;;;;;8264411;28;20193;-65
2023/01/21 02:50:54;;;;;;;35.53;17.40;;;-1.20;99.90;;;;;;8269273;28;20289;-65
2023/01/21 02:54:57;;;;;;;34.63;17.37;;;-1.20;99.90;;;;;;8270129;28;20213;-64
2023/01/21 02:59:04;;;;;;;36.50;17.77;;;-1.20;99.90;;;;;;8267055;28;20181;-65
2023/01/21 03:03:46;;;;;;;34.80;17.23;;;-1.20;99.90;;;;;;8264664;28;20251;-65
2023/01/21 03:08:15;;;;;;;33.97;17.00;;;-1.20;99.90;;;;;;8268492;28;20181;-67
2023/01/21 03:12:36;;;;;;;31.63;16.77;;;-1.20;99.90;;;;;;8262322;28;20248;-65
2023/01/21 03:16:58;;;;;;;27.13;15.70;;;-1.20;99.90;;;;;;8266656;28;20201;-66
2023/01/21 03:21:09;;;;;;;31.27;17.67;;;-1.20;99.90;;;;;;8267313;28;20196;-65
2023/01/21 03:25:11;;;;;;;30.50;15.77;;;-1.30;99.90;;;;;;8266175;28;20190;-65
2023/01/21 03:29:20;;;;;;;34.00;15.93;;;-1.30;99.90;;;;;;8267941;28;20335;-66
2023/01/21 03:33:22;;;;;;;25.60;14.77;;;-1.30;99.90;;;;;;8266638;28;20301;-66
2023/01/21 03:38:01;;;;;;;29.87;15.10;;;-1.40;99.90;;;;;;8264350;28;20215;-66
2023/01/21 03:42:02;;;;;;;25.60;13.53;;;-1.40;99.90;;;;;;8259721;28;20338;-66
2023/01/21 03:46:36;;;;;;;23.27;12.73;;;-1.50;99.90;;;;;;8263643;28;20191;-65
2023/01/21 03:50:44;;;;;;;24.23;12.37;;;-1.60;99.90;;;;;;8261644;28;20243;-65
2023/01/21 03:54:47;;;;;;;22.20;13.23;;;-1.60;99.90;;;;;;8268489;28;20220;-65
2023/01/21 03:58:47;;;;;;;21.43;12.43;;;-1.60;99.90;;;;;;8266486;28;20189;-66
2023/01/21 04:02:48;;;;;;;24.13;13.23;;;-1.60;99.90;;;;;;8263764;28;20247;-65
2023/01/21 04:06:49;;;;;;;23.80;13.07;;;-1.70;99.90;;;;;;8260347;28;20206;-65
2023/01/21 04:10:50;;;;;;;21.77;12.20;;;-1.70;99.90;;;;;;8269418;28;20192;-65
2023/01/21 04:14:51;;;;;;;22.60;13.67;;;-1.70;99.90;;;;;;8267753;28;20217;-65
2023/01/21 04:18:52;;;;;;;22.53;12.23;;;-1.70;99.90;;;;;;8274253;28;20187;-65
2023/01/21 04:22:53;;;;;;;18.10;11.87;;;-1.70;99.90;;;;;;8264527;28;20179;-65
2023/01/21 04:26:54;;;;;;;20.97;11.87;;;-1.70;99.90;;;;;;8270580;28;20207;-65
2023/01/21 04:30:55;;;;;;;21.67;11.70;;;-1.70;99.90;;;;;;8264056;28;20192;-65
2023/01/21 04:34:56;;;;;;;23.60;11.87;;;-1.70;99.90;;;;;;8268023;28;20211;-65
2023/01/21 04:38:56;;;;;;;22.33;11.83;;;-1.70;99.90;;;;;;8268538;28;20204;-65
2023/01/21 04:42:57;;;;;;;20.67;11.97;;;-1.70;99.90;;;;;;8261858;28;20212;-65
2023/01/21 04:46:58;;;;;;;23.17;11.90;;;-1.70;99.90;;;;;;8261721;28;20193;-65
2023/01/21 04:50:59;;;;;;;19.77;11.37;;;-1.70;99.90;;;;;;8265460;28;20223;-65
2023/01/21 04:55:00;;;;;;;18.37;11.60;;;-1.70;99.90;;;;;;8267717;28;20216;-65
2023/01/21 04:59:00;;;;;;;20.10;12.03;;;-1.70;99.90;;;;;;8274908;28;20297;-65
2023/01/21 05:03:01;;;;;;;22.10;11.67;;;-1.70;99.90;;;;;;8270192;28;20198;-65
2023/01/21 05:07:02;;;;;;;20.80;11.77;;;-1.80;99.90;;;;;;8268812;28;20201;-65
2023/01/21 05:11:06;;;;;;;23.10;11.77;;;-1.70;99.90;;;;;;8267149;28;20218;-65
2023/01/21 05:15:07;;;;;;;21.27;11.90;;;-1.70;99.90;;;;;;8265093;28;20246;-65
2023/01/21 05:19:08;;;;;;;21.73;11.83;;;-1.70;99.90;;;;;;8276289;28;20203;-65
2023/01/21 05:23:08;;;;;;;24.90;12.90;;;-1.70;99.90;;;;;;8272332;28;20198;-65
2023/01/21 05:27:09;;;;;;;24.63;13.50;;;-1.60;99.90;;;;;;8268185;28;20203;-64
2023/01/21 05:31:10;;;;;;;21.57;11.83;;;-1.70;99.90;;;;;;8267615;28;20245;-65
2023/01/21 05:35:12;;;;;;;23.80;13.03;;;-1.70;99.90;;;;;;8274409;28;20671;-65
2023/01/21 05:39:13;;;;;;;20.37;12.03;;;-1.60;99.90;;;;;;8264898;28;20281;-65
2023/01/21 05:43:14;;;;;;;24.57;12.00;;;-1.60;99.90;;;;;;8272381;28;20187;-65
2023/01/21 05:47:15;;;;;;;25.60;12.83;;;-1.60;99.90;;;;;;8262210;28;20192;-65
2023/01/21 05:51:15;;;;;;;21.20;13.03;;;-1.60;99.90;;;;;;8272729;28;20191;-64
2023/01/21 05:55:16;;;;;;;22.77;11.57;;;-1.50;99.90;;;;;;8272033;28;20215;-64
2023/01/21 05:59:17;;;;;;;22.73;13.13;;;-1.50;99.90;;;;;;8272647;28;20183;-65
2023/01/21 06:03:18;;;;;;;26.83;13.50;;;-1.50;99.90;;;;;;8262479;28;20184;-64
2023/01/21 06:07:19;;;;;;;25.67;12.50;;;-1.50;99.90;;;;;;8273265;28;20214;-64
2023/01/21 06:11:20;;;;;;;23.17;11.77;;;-1.50;99.90;;;;;;8270883;28;20298;-65
2023/01/21 06:15:21;;;;;;;23.30;12.53;;;-1.40;99.90;;;;;;8270969;28;20222;-64
2023/01/21 06:19:22;;;;;;;21.43;11.57;;;-1.40;99.90;;;;;;8266078;28;20191;-63
2023/01/21 06:23:22;;;;;;;22.27;12.70;;;-1.50;99.90;;;;;;8267517;28;20209;-64
2023/01/21 06:27:23;;;;;;;22.67;11.90;;;-1.40;99.90;;;;;;8270326;28;20189;-64
2023/01/21 06:31:24;;;;;;;21.53;11.33;;;-1.40;99.90;;;;;;8266414;28;20211;-64
2023/01/21 06:35:25;;;;;;;25.33;12.33;;;-1.40;99.90;;;;;;8268173;28;20211;-63
2023/01/21 06:39:26;;;;;;;21.83;11.50;;;-1.30;99.90;;;;;;8267716;28;20196;-64
2023/01/21 06:43:27;;;;;;;23.70;12.07;;;-1.30;99.90;;;;;;8262989;28;20177;-64
2023/01/21 06:47:27;;;;;;;21.70;12.10;;;-1.30;99.90;;;;;;8266343;28;20291;-64
2023/01/21 06:51:28;;;;;;;25.30;12.23;;;-1.30;99.90;;;;;;8265823;28;20183;-64
2023/01/21 06:55:29;;;;;;;21.57;11.80;;;-1.30;99.90;;;;;;8263047;28;20199;-64
2023/01/21 06:59:30;;;;;;;21.83;12.33;;;-1.20;99.90;;;;;;8260818;28;20195;-64
2023/01/21 07:03:31;;;;;;;22.73;11.90;;;-1.20;99.90;;;;;;8262956;28;20265;-69
2023/01/21 07:07:32;;;;;;;24.73;12.40;;;-1.20;99.90;;;;;;8270161;28;20199;-69
2023/01/21 07:11:33;;;;;;;21.17;11.40;;;-1.20;99.90;;;;;;8271077;28;20200;-69
2023/01/21 07:15:34;;;;;;;23.03;13.73;;;-1.20;99.90;;;;;;8267248;28;20401;-69
2023/01/21 07:19:35;;;;;;;22.87;11.73;;;-1.20;99.90;;;;;;8269263;28;20185;-69
2023/01/21 07:23:35;;;;;;;22.00;12.17;;;-1.20;99.90;;;;;;8266207;28;20188;-69
2023/01/21 07:27:36;;;;;;;25.03;12.93;;;-1.20;99.90;;;;;;8268385;28;20251;-70
2023/01/21 07:31:37;;;;;;;21.87;12.83;;;-1.20;99.90;;;;;;8261570;28;20201;-70
2023/01/21 07:35:38;;;;;;;23.13;12.10;;;-1.20;99.90;;;;;;8258260;28;20200;-70
2023/01/21 07:39:39;;;;;;;21.93;12.30;;;-1.20;99.90;;;;;;8265339;28;20199;-69
2023/01/21 07:43:39;;;;;;;25.93;13.57;;;-1.20;99.90;;;;;;8267151;28;20218;-69
2023/01/21 07:47:40;;;;;;;22.63;12.90;;;-1.30;99.90;;;;;;8263501;28;20190;-69
2023/01/21 07:51:41;;;;;;;25.40;13.17;;;-1.20;99.90;;;;;;8263653;28;20222;-69
2023/01/21 07:55:42;;;;;;;28.53;12.40;;;-1.20;99.90;;;;;;8259969;28;20221;-71
2023/01/21 07:59:43;;;;;;;20.97;12.33;;;-1.20;99.90;;;;;;8264396;28;20402;-69
2023/01/21 08:03:43;;;;;;;27.23;13.47;;;-1.20;99.90;;;;;;8263512;28;20192;-71
2023/01/21 08:07:44;;;;;;;25.57;13.00;;;-1.10;99.90;;;;;;8264008;28;20454;-68
2023/01/21 08:11:45;;;;;;;23.50;12.97;;;-1.10;99.90;;;;;;8264793;28;20214;-69
2023/01/21 08:15:54;;;;;;;25.77;14.17;;;-1.10;99.90;;;;;;8263381;28;20261;-69
2023/01/21 08:19:55;;;;;;;24.80;12.97;;;-1.10;99.90;;;;;;8260552;28;20411;-70
2023/01/21 08:23:56;;;;;;;26.03;14.00;;;-1.10;99.90;;;;;;8262304;28;20192;-70
2023/01/21 08:27:58;;;;;;;28.17;13.83;;;-1.10;99.90;;;;;;8267984;28;20190;-70
2023/01/21 08:31:59;;;;;;;26.40;13.10;;;-1.10;99.90;;;;;;8276079;28;20215;-70
2023/01/21 08:36:02;;;;;;;30.70;14.27;;;-1.10;99.90;;;;;;8273344;28;20294;-71
2023/01/21 08:40:03;;;;;;;25.77;13.60;;;-1.10;99.90;;;;;;8267717;28;20219;-70
2023/01/21 08:44:03;;;;;;;27.23;12.83;;;-1.10;99.90;;;;;;8269347;28;20250;-70
2023/01/21 08:48:05;;;;;;;24.43;13.77;;;-1.10;99.90;;;;;;8269027;28;20196;-71
2023/01/21 08:52:05;;;;;;;24.37;13.03;;;-1.10;99.90;;;;;;8276749;28;20211;-70
2023/01/21 08:56:06;;;;;;;26.83;13.80;;;-1.00;99.90;;;;;;8271884;28;20186;-71
2023/01/21 09:00:08;;;;;;;30.03;12.53;;;-1.00;99.90;;;;;;8273522;28;20180;-71
2023/01/21 09:04:09;;;;;;;27.03;12.70;;;-1.00;99.90;;;;;;8275242;28;20191;-71
2023/01/21 09:08:10;;;;;;;22.73;12.83;;;-1.00;99.90;;;;;;8270416;28;20239;-70
2023/01/21 09:12:11;;;;;;;25.33;11.97;;;-0.90;99.90;;;;;;8267352;28;20241;-71
2023/01/21 09:16:17;;;;;;;22.17;12.00;;;-0.90;99.90;;;;;;8265906;28;20201;-73
2023/01/21 09:20:18;;;;;;;23.83;12.90;;;-0.90;99.90;;;;;;8268577;28;20196;-70
2023/01/21 09:24:19;;;;;;;23.30;10.80;;;-0.80;99.90;;;;;;8270030;28;20261;-70
2023/01/21 09:28:21;;;;;;;18.60;11.00;;;-0.80;99.90;;;;;;8273073;28;20268;-70
2023/01/21 09:32:22;;;;;;;21.63;11.07;;;-0.70;99.90;;;;;;8265940;28;20236;-70
2023/01/21 09:36:25;;;;;;;22.23;11.90;;;-0.70;99.90;;;;;;8267164;28;20221;-71
2023/01/21 09:40:26;;;;;;;22.37;11.23;;;-0.70;99.90;;;;;;8271929;28;20197;-71
2023/01/21 09:44:27;;;;;;;18.90;10.37;;;-0.60;99.90;;;;;;8269091;28;20196;-71
2023/01/21 09:48:34;;;;;;;17.60;9.83;;;-0.60;99.90;;;;;;8262873;28;20480;-72
2023/01/21 09:52:39;;;;;;;20.37;10.20;;;-0.50;99.90;;;;;;8263968;28;20568;-71
2023/01/21 09:56:56;;;;;;;19.97;9.77;;;-0.50;99.90;;;;;;8268065;28;20186;-71
2023/01/21 10:01:18;;;;;;;23.40;11.07;;;-0.40;99.90;;;;;;8269574;28;20472;-72
2023/01/21 10:05:38;;;;;;;19.20;9.97;;;-0.30;99.90;;;;;;8269307;28;20197;-71
2023/01/21 10:09:41;;;;;;;15.73;10.10;;;-0.30;99.90;;;;;;8271951;28;20196;-71
2023/01/21 10:13:53;;;;;;;15.47;8.27;;;-0.20;99.90;;;;;;8266941;28;20214;-71
2023/01/21 10:18:12;;;;;;;16.17;8.50;;;-0.20;99.90;;;;;;8264877;28;20189;-72
2023/01/21 10:22:28;;;;;;;20.27;8.73;;;-0.10;99.90;;;;;;8274916;28;20297;-71
2023/01/21 10:26:32;;;;;;;12.50;7.37;;;0.00;99.90;;;;;;8266512;28;20255;-71
2023/01/21 10:30:45;;;;;;;17.53;8.50;;;-0.10;99.90;;;;;;8267840;28;21113;-70
2023/01/21 10:34:50;;;;;;;15.17;8.57;;;0.00;99.90;;;;;;8262756;28;20227;-70
2023/01/21 10:39:23;;;;;;;12.67;7.03;;;0.00;99.90;;;;;;8264861;28;20265;-70
2023/01/21 10:43:53;;;;;;;11.10;6.47;;;0.00;99.90;;;;;;8270819;28;20194;-70
2023/01/21 10:48:18;;;;;;;10.73;6.50;;;0.10;99.90;;;;;;8270445;28;20193;-71
2023/01/21 10:52:37;;;;;;;10.37;5.77;;;0.10;99.90;;;;;;8268225;28;20434;-70
2023/01/21 10:56:46;;;;;;;11.87;6.77;;;0.20;99.90;;;;;;8266325;28;20376;-69
2023/01/21 11:00:49;;;;;;;12.67;5.67;;;0.20;99.90;;;;;;8269762;28;20255;-69
2023/01/21 11:04:51;;;;;;;11.10;6.40;;;0.30;99.90;;;;;;8260182;28;20195;-69
2023/01/21 11:08:56;;;;;;;9.93;6.53;;;0.40;99.90;;;;;;8263248;28;20191;-70
2023/01/21 11:12:57;;;;;;;9.17;5.93;;;0.40;99.90;;;;;;8270809;28;20215;-70
2023/01/21 11:16:59;;;;;;;8.23;5.60;;;0.40;99.90;;;;;;8267513;28;20254;-70
2023/01/21 11:21:20;;;;;;;9.27;5.87;;;0.50;99.90;;;;;;8264561;28;20194;-70
2023/01/21 11:25:27;;;;;;;8.80;5.30;;;0.50;99.90;;;;;;8262991;28;20244;-69
2023/01/21 11:29:39;;;;;;;8.00;4.47;;;0.50;99.90;;;;;;8266263;28;20191;-70
2023/01/21 11:33:42;;;;;;;10.90;6.13;;;0.50;99.90;;;;;;8264072;28;20253;-68
2023/01/21 11:37:44;;;;;;;9.77;5.97;;;0.50;99.90;;;;;;8267079;28;20238;-70
2023/01/21 11:42:06;;;;;;;7.60;5.00;;;0.50;99.90;;;;;;8262835;28;20188;-69
2023/01/21 11:46:24;;;;;;;7.50;4.83;;;0.60;99.90;;;;;;8267532;28;20244;-69
2023/01/21 11:50:29;;;;;;;8.30;5.20;;;0.60;99.90;;;;;;8265778;28;20203;-69
2023/01/21 11:54:38;;;;;;;6.00;4.17;;;0.70;99.90;;;;;;8261949;28;20275;-68
2023/01/21 11:58:40;;;;;;;7.57;5.23;;;0.70;99.90;;;;;;8256620;28;20192;-68
2023/01/21 12:02:50;;;;;;;7.60;4.80;;;0.70;99.90;;;;;;8268252;28;20274;-69
2023/01/21 12:06:56;;;;;;;10.57;4.60;;;0.70;99.90;;;;;;8266661;28;20299;-69
2023/01/21 12:11:02;;;;;;;6.13;4.47;;;0.60;99.90;;;;;;8262637;28;20277;-67
2023/01/21 12:15:24;;;;;;;6.57;4.13;;;0.60;99.90;;;;;;8263617;28;20233;-66
2023/01/21 12:19:43;;;;;;;7.73;4.50;;;0.60;99.90;;;;;;8263967;28;20190;-66
2023/01/21 12:23:59;;;;;;;7.57;4.47;;;0.60;99.90;;;;;;8266975;28;20198;-67
2023/01/21 12:28:31;;;;;;;6.93;4.07;;;0.60;99.90;;;;;;8271006;28;20183;-67
2023/01/21 12:32:57;;;;;;;8.13;4.73;;;0.60;99.90;;;;;;8269396;28;20219;-67
2023/01/21 12:37:17;;;;;;;6.03;4.27;;;0.60;99.90;;;;;;8264013;28;20318;-66
2023/01/21 12:41:25;;;;;;;5.03;3.77;;;0.60;99.90;;;;;;8261824;28;20196;-66
2023/01/21 12:45:38;;;;;;;6.70;4.57;;;0.70;99.90;;;;;;8264490;28;20377;-66
2023/01/21 12:50:02;;;;;;;5.37;4.43;;;0.60;99.90;;;;;;8261725;28;20192;-66
2023/01/21 12:54:28;;;;;;;6.13;4.60;;;0.60;99.90;;;;;;8263198;28;20241;-66
2023/01/21 12:58:32;;;;;;;7.87;3.83;;;0.60;99.90;;;;;;8264203;28;20191;-66
2023/01/21 13:02:59;;;;;;;18.70;7.53;;;0.60;99.90;;;;;;8268587;28;20590;-65
2023/01/21 13:07:27;;;;;;;5.40;3.30;;;0.60;99.90;;;;;;8261864;28;20524;-66
2023/01/21 13:11:46;;;;;;;6.53;4.20;;;0.60;99.90;;;;;;8268966;28;20263;-66
2023/01/21 13:15:51;;;;;;;3.33;3.00;;;0.70;99.90;;;;;;8267651;28;20220;-65
2023/01/21 13:19:52;;;;;;;4.80;3.37;;;0.80;99.90;;;;;;8265469;28;20192;-65
2023/01/21 13:24:03;;;;;;;6.37;3.50;;;0.80;99.90;;;;;;8273646;28;20252;-64
2023/01/21 13:28:25;;;;;;;4.30;3.07;;;0.90;99.90;;;;;;8276612;28;20314;-65
2023/01/21 13:32:52;;;;;;;3.60;3.00;;;0.90;99.90;;;;;;8269492;28;20210;-67
2023/01/21 13:37:22;;;;;;;5.00;2.87;;;1.00;99.90;;;;;;8272624;28;20210;-65
2023/01/21 13:41:28;;;;;;;4.37;3.20;;;1.00;99.90;;;;;;8269147;28;20207;-65
2023/01/21 13:45:55;;;;;;;5.97;3.63;;;1.00;99.90;;;;;;8265421;28;20187;-65
2023/01/21 13:50:20;;;;;;;4.23;3.00;;;0.90;99.90;;;;;;8264664;28;20438;-65
2023/01/21 13:54:43;;;;;;;4.70;3.13;;;0.90;99.90;;;;;;8270208;28;20319;-66
2023/01/21 13:58:59;;;;;;;4.23;3.37;;;0.90;99.90;;;;;;8275013;28;20207;-66
2023/01/21 14:03:32;;;;;;;4.33;3.10;;;0.80;99.90;;;;;;8270378;28;20223;-67
2023/01/21 14:08:00;;;;;;;4.50;3.10;;;0.70;99.90;;;;;;8255737;28;20215;-66
2023/01/21 14:12:11;;;;;;;5.97;3.50;;;0.70;99.90;;;;;;8269503;28;20202;-67
2023/01/21 14:16:32;;;;;;;4.63;3.27;;;0.60;99.90;;;;;;8267347;28;20175;-66
2023/01/21 14:21:14;;;;;;;4.33;3.47;;;0.60;99.90;;;;;;8263567;28;20197;-67
2023/01/21 14:25:36;;;;;;;4.43;3.30;;;0.60;99.90;;;;;;8262719;28;20361;-66
2023/01/21 14:29:44;;;;;;;4.70;3.00;;;0.60;99.90;;;;;;8261717;28;20199;-66
2023/01/21 14:34:03;;;;;;;3.63;2.87;;;0.50;99.90;;;;;;8262983;28;20222;-66
2023/01/21 14:38:35;;;;;;;6.07;4.07;;;0.40;99.90;;;;;;8261729;28;20209;-66
2023/01/21 14:42:54;;;;;;;5.20;3.37;;;0.30;99.90;;;;;;8272107;28;20199;-66
2023/01/21 14:47:18;;;;;;;5.77;3.67;;;0.30;99.90;;;;;;8263408;28;20191;-66
2023/01/21 14:51:22;;;;;;;5.00;3.23;;;0.30;99.90;;;;;;8262573;28;20467;-66
2023/01/21 14:55:26;;;;;;;4.73;2.80;;;0.30;99.90;;;;;;8264032;28;20211;-66
2023/01/21 14:59:42;;;;;;;3.13;2.33;;;0.30;99.90;;;;;;8267246;28;20187;-65
2023/01/21 15:03:48;;;;;;;4.20;2.90;;;0.30;99.90;;;;;;8263570;28;20187;-65
2023/01/21 15:08:01;;;;;;;5.57;3.17;;;0.20;99.90;;;;;;8257714;28;20242;-66
2023/01/21 15:12:06;;;;;;;3.43;2.50;;;0.20;99.90;;;;;;8263123;28;20184;-66
2023/01/21 15:16:26;;;;;;;5.33;2.93;;;0.20;99.90;;;;;;8261808;28;20187;-65
2023/01/21 15:20:38;;;;;;;3.80;2.87;;;0.20;99.90;;;;;;8266217;28;20203;-65
2023/01/21 15:24:40;;;;;;;5.00;2.70;;;0.20;99.90;;;;;;8263445;28;20199;-65
2023/01/21 15:28:44;;;;;;;13.27;7.30;;;0.20;99.90;;;;;;8265378;28;20278;-66
2023/01/21 15:32:48;;;;;;;11.23;5.90;;;0.20;99.90;;;;;;8263761;28;20225;-65
2023/01/21 15:36:56;;;;;;;7.67;4.70;;;0.20;99.90;;;;;;8268907;28;20247;-65
2023/01/21 15:41:11;;;;;;;30.10;12.57;;;0.20;99.90;;;;;;8263061;28;20315;-65
2023/01/21 15:45:24;;;;;;;30.20;11.53;;;0.20;99.90;;;;;;8269537;28;20192;-65
2023/01/21 15:49:37;;;;;;;18.77;9.27;;;0.20;99.90;;;;;;8269100;28;20187;-66
2023/01/21 15:54:05;;;;;;;29.33;13.57;;;0.20;99.90;;;;;;8263932;28;20195;-67
2023/01/21 15:58:24;;;;;;;44.97;16.37;;;0.20;99.90;;;;;;8269134;28;20253;-67
2023/01/21 16:02:31;;;;;;;20.47;10.20;;;0.20;99.90;;;;;;8263343;28;20197;-67
2023/01/21 16:06:35;;;;;;;20.33;11.13;;;0.20;99.90;;;;;;8266151;28;20241;-67
2023/01/21 16:10:58;;;;;;;83.43;28.53;;;0.20;99.90;;;;;;8268251;28;20210;-66
2023/01/21 16:15:29;;;;;;;66.30;23.30;;;0.20;99.90;;;;;;8266456;28;20211;-66
2023/01/21 16:19:37;;;;;;;38.63;15.20;;;0.30;99.90;;;;;;8268911;28;20214;-66
2023/01/21 16:23:42;;;;;;;43.63;18.07;;;0.30;99.90;;;;;;8261853;28;20195;-67
2023/01/21 16:27:47;;;;;;;115.33;36.57;;;0.20;99.90;;;;;;8260874;28;20187;-67
2023/01/21 16:31:59;;;;;;;91.40;32.57;;;0.30;99.90;;;;;;8258753;28;20253;-67
2023/01/21 16:36:06;;;;;;;38.07;16.33;;;0.30;99.90;;;;;;8258480;28;20207;-65
2023/01/21 16:40:23;;;;;;;84.83;29.87;;;0.30;99.90;;;;;;8268893;28;20203;-65
2023/01/21 16:44:24;;;;;;;38.57;17.73;;;0.30;99.90;;;;;;8269987;28;20192;-65
2023/01/21 16:48:28;;;;;;;44.73;18.73;;;0.30;99.90;;;;;;8271965;28;20194;-65
2023/01/21 16:52:30;;;;;;;47.37;20.93;;;0.30;99.90;;;;;;8270904;28;20207;-65
2023/01/21 16:56:32;;;;;;;66.90;26.47;;;0.30;99.90;;;;;;8269392;28;20286;-65
2023/01/21 17:00:33;;;;;;;72.37;26.20;;;0.40;99.90;;;;;;8276738;28;20186;-65
2023/01/21 17:04:34;;;;;;;104.93;33.17;;;0.30;99.90;;;;;;8266448;28;20191;-66
2023/01/21 17:08:36;;;;;;;51.23;20.67;;;0.30;99.90;;;;;;8270985;28;20244;-66
2023/01/21 17:12:37;;;;;;;69.53;26.47;;;0.30;99.90;;;;;;8274464;28;20207;-65
2023/01/21 17:16:40;;;;;;;83.97;29.93;;;0.30;99.90;;;;;;8270729;28;20190;-66
2023/01/21 17:20:44;;;;;;;42.83;20.37;;;0.30;99.90;;;;;;8266257;28;20183;-66
2023/01/21 17:25:06;;;;;;;79.13;35.10;;;0.30;99.90;;;;;;8265201;28;20226;-66
2023/01/21 17:29:18;;;;;;;107.00;35.57;;;0.30;99.90;;;;;;8269851;28;20276;-66
2023/01/21 17:33:29;;;;;;;128.50;44.23;;;0.30;99.90;;;;;;8273973;28;20290;-67
2023/01/21 17:37:54;;;;;;;147.83;53.37;;;0.30;99.90;;;;;;8273921;28;20223;-66
2023/01/21 17:42:02;;;;;;;115.63;46.27;;;0.30;99.90;;;;;;8268921;28;20472;-66
2023/01/21 17:46:03;;;;;;;123.60;49.03;;;0.30;99.90;;;;;;8265768;28;20191;-66
2023/01/21 17:50:23;;;;;;;102.37;39.87;;;0.30;99.90;;;;;;8274757;28;20191;-66
2023/01/21 17:54:28;;;;;;;92.43;33.57;;;0.30;99.90;;;;;;8266654;28;20215;-66
2023/01/21 17:58:49;;;;;;;74.80;35.07;;;0.30;99.90;;;;;;8272482;28;20175;-66
2023/01/21 18:02:50;;;;;;;71.00;31.83;;;0.30;99.90;;;;;;8272665;28;20191;-66
2023/01/21 18:06:53;;;;;;;47.57;23.07;;;0.20;99.90;;;;;;8271337;28;20191;-67
2023/01/21 18:10:54;;;;;;;52.27;25.97;;;0.20;99.90;;;;;;8271818;28;20287;-67
2023/01/21 18:14:55;;;;;;;83.90;36.07;;;0.20;99.90;;;;;;8268055;28;20211;-66
2023/01/21 18:18:57;;;;;;;45.43;24.80;;;0.30;99.90;;;;;;8265184;28;20187;-66
2023/01/21 18:22:59;;;;;;;46.27;24.83;;;0.20;99.90;;;;;;8268421;28;20179;-66
2023/01/21 18:27:01;;;;;;;42.50;22.03;;;0.30;99.90;;;;;;8271164;28;20218;-66
2023/01/21 18:31:03;;;;;;;45.27;24.10;;;0.20;99.90;;;;;;8267189;28;20198;-66
2023/01/21 18:35:04;;;;;;;51.43;25.87;;;0.30;99.90;;;;;;8265632;28;20231;-66
2023/01/21 18:39:14;;;;;;;35.40;19.37;;;0.30;99.90;;;;;;8268696;28;20245;-66
2023/01/21 18:43:17;;;;;;;41.03;23.47;;;0.30;99.90;;;;;;8272483;28;20191;-66
2023/01/21 18:47:19;;;;;;;35.40;21.80;;;0.30;99.90;;;;;;8269418;28;20198;-67
2023/01/21 18:51:20;;;;;;;44.67;26.00;;;0.30;99.90;;;;;;8267411;28;20191;-67
2023/01/21 18:55:26;;;;;;;44.17;24.23;;;0.40;99.90;;;;;;8273983;28;20254;-67
2023/01/21 18:59:28;;;;;;;59.17;33.00;;;0.40;99.90;;;;;;8265157;28;20184;-67
2023/01/21 19:03:29;;;;;;;44.40;27.43;;;0.30;99.90;;;;;;8272755;28;20283;-65
2023/01/21 19:07:31;;;;;;;29.20;17.60;;;0.40;99.90;;;;;;8263643;28;20260;-66
2023/01/21 19:11:32;;;;;;;24.60;16.87;;;0.40;99.90;;;;;;8266955;28;20203;-65
2023/01/21 19:15:33;;;;;;;36.73;21.50;;;0.40;99.90;;;;;;8266764;28;20269;-65
2023/01/21 19:19:34;;;;;;;55.37;26.17;;;0.40;99.90;;;;;;8264667;28;20229;-65
2023/01/21 19:23:36;;;;;;;54.70;30.57;;;0.40;99.90;;;;;;8267168;28;20226;-66
2023/01/21 19:27:40;;;;;;;31.27;18.37;;;0.30;99.90;;;;;;8264603;28;20286;-66
2023/01/21 19:31:41;;;;;;;31.97;21.10;;;0.30;99.90;;;;;;8271661;28;20290;-65
2023/01/21 19:35:44;;;;;;;33.00;20.37;;;0.30;99.90;;;;;;8266546;28;20288;-66
2023/01/21 19:39:45;;;;;;;31.80;18.70;;;0.30;99.90;;;;;;8265892;28;20206;-66
2023/01/21 19:43:46;;;;;;;22.93;15.03;;;0.30;99.90;;;;;;8269220;28;20194;-66
2023/01/21 19:47:49;;;;;;;26.17;16.47;;;0.30;99.90;;;;;;8264413;28;20187;-66
2023/01/21 19:51:50;;;;;;;27.83;19.17;;;0.30;99.90;;;;;;8265357;28;20188;-66
2023/01/21 19:55:51;;;;;;;28.40;18.60;;;0.40;99.90;;;;;;8262838;28;20647;-66
2023/01/21 19:59:53;;;;;;;27.97;17.47;;;0.40;99.90;;;;;;8261544;28;20183;-67
2023/01/21 20:03:54;;;;;;;42.50;22.10;;;0.40;99.90;;;;;;8271306;28;20506;-66
2023/01/21 20:07:55;;;;;;;39.23;22.53;;;0.30;99.90;;;;;;8269619;28;20231;-67
2023/01/21 20:11:57;;;;;;;37.23;21.57;;;0.30;99.90;;;;;;8269451;28;20624;-67
2023/01/21 20:16:03;;;;;;;22.53;14.30;;;0.30;99.90;;;;;;8264684;28;20223;-66
2023/01/21 20:20:19;;;;;;;22.40;14.93;;;0.30;99.90;;;;;;8258636;28;22271;-66
2023/01/21 20:24:20;;;;;;;18.80;11.87;;;0.30;99.90;;;;;;8263762;28;20188;-66
2023/01/21 20:28:24;;;;;;;25.37;15.57;;;0.30;99.90;;;;;;8262344;28;20202;-66
2023/01/21 20:32:25;;;;;;;26.47;16.43;;;0.40;99.90;;;;;;8269408;28;20305;-66
2023/01/21 20:36:26;;;;;;;22.90;16.50;;;0.40;99.90;;;;;;8261046;28;20211;-66
2023/01/21 20:40:30;;;;;;;20.47;14.23;;;0.40;99.90;;;;;;8268746;28;20202;-66
2023/01/21 20:44:31;;;;;;;17.50;13.67;;;0.40;99.90;;;;;;8261086;28;20176;-66
2023/01/21 20:48:38;;;;;;;18.30;12.63;;;0.40;99.90;;;;;;8269036;28;20286;-66
2023/01/21 20:52:39;;;;;;;17.03;12.20;;;0.40;99.90;;;;;;8265515;28;20226;-65
2023/01/21 20:56:40;;;;;;;21.00;13.30;;;0.40;99.90;;;;;;8262527;28;20180;-66
2023/01/21 21:00:43;;;;;;;24.67;15.93;;;0.40;99.90;;;;;;8258971;28;20211;-66
2023/01/21 21:04:45;;;;;;;26.60;16.20;;;0.40;99.90;;;;;;8262381;28;20188;-65
2023/01/21 21:08:47;;;;;;;44.87;24.83;;;0.40;99.90;;;;;;8261829;28;20196;-66